UPS967 SKCG-SKBO
Flight info
| Callsign | UPS967 |
|---|---|
| Flight time | 1h 8m |
| Altitude | 33000 |
| Route | UGALU UL305 ATANA ATANA4W |
| Aircraft | A306/H-SDE3FGHIRWY/LB1 |
Departure
| Time | 2026-05-03 20:22 |
|---|---|
| Airport | Rafael Nuñez International Airport (SKCG) |
Arrival
| Time | 2026-05-03 21:31 |
|---|---|
| Airport | El Dorado International Airport (SKBO) |
| Time | Latitude | Longitude | Altitude | Speed | Heading |
|---|---|---|---|---|---|
| 2026-05-03 20:15 | 10.44613 | -75.51451 | 26 ft | 2 kts | 348° |
| 2026-05-03 20:15 | 10.44596 | -75.51448 | 26 ft | 2 kts | 348° |
| 2026-05-03 20:15 | 10.44581 | -75.51444 | 26 ft | 2 kts | 348° |
| 2026-05-03 20:15 | 10.44568 | -75.51441 | 26 ft | 2 kts | 348° |
| 2026-05-03 20:16 | 10.44560 | -75.51440 | 25 ft | 0 kts | 348° |
| 2026-05-03 20:17 | 10.44572 | -75.51442 | 26 ft | 3 kts | 348° |
| 2026-05-03 20:18 | 10.44597 | -75.51439 | 25 ft | 4 kts | 25° |
| 2026-05-03 20:18 | 10.44614 | -75.51422 | 24 ft | 3 kts | 46° |
| 2026-05-03 20:18 | 10.44628 | -75.51398 | 23 ft | 7 kts | 59° |
| 2026-05-03 20:18 | 10.44668 | -75.51329 | 25 ft | 15 kts | 59° |
| 2026-05-03 20:19 | 10.44728 | -75.51262 | 27 ft | 8 kts | 1° |
| 2026-05-03 20:19 | 10.44802 | -75.51270 | 28 ft | 13 kts | 353° |
| 2026-05-03 20:19 | 10.44893 | -75.51277 | 27 ft | 14 kts | 357° |
| 2026-05-03 20:19 | 10.44986 | -75.51273 | 28 ft | 13 kts | 4° |
| 2026-05-03 20:20 | 10.45078 | -75.51266 | 27 ft | 13 kts | 4° |
| 2026-05-03 20:20 | 10.45167 | -75.51260 | 27 ft | 12 kts | 4° |
| 2026-05-03 20:20 | 10.45249 | -75.51265 | 27 ft | 12 kts | 338° |
| 2026-05-03 20:20 | 10.45312 | -75.51274 | 26 ft | 7 kts | 42° |
| 2026-05-03 20:21 | 10.45305 | -75.51258 | 25 ft | 1 kts | 149° |
| 2026-05-03 20:21 | 10.45296 | -75.51257 | 24 ft | 0 kts | 171° |
| 2026-05-03 20:21 | 10.45254 | -75.51256 | 25 ft | 14 kts | 180° |
| 2026-05-03 20:21 | 10.45034 | -75.51264 | 25 ft | 60 kts | 182° |
| 2026-05-03 20:22 | 10.44398 | -75.51285 | 24 ft | 121 kts | 185° |
| 2026-05-03 20:22 | 10.43370 | -75.51324 | 88 ft | 169 kts | 180° |
| 2026-05-03 20:22 | 10.42238 | -75.51325 | 874 ft | 160 kts | 179° |
| 2026-05-03 20:22 | 10.41042 | -75.51326 | 1210 ft | 188 kts | 186° |
| 2026-05-03 20:23 | 10.39613 | -75.51539 | 1545 ft | 226 kts | 192° |
| 2026-05-03 20:23 | 10.37963 | -75.51887 | 1825 ft | 254 kts | 189° |
| 2026-05-03 20:23 | 10.36167 | -75.51983 | 2230 ft | 261 kts | 177° |
| 2026-05-03 20:23 | 10.34328 | -75.51708 | 2256 ft | 282 kts | 167° |
| 2026-05-03 20:24 | 10.32281 | -75.51235 | 1647 ft | 323 kts | 171° |
| 2026-05-03 20:24 | 10.30007 | -75.50992 | 1778 ft | 329 kts | 176° |
| 2026-05-03 20:24 | 10.27764 | -75.50860 | 2442 ft | 316 kts | 177° |
| 2026-05-03 20:24 | 10.25614 | -75.50721 | 3187 ft | 303 kts | 172° |
| 2026-05-03 20:25 | 10.23595 | -75.50296 | 3999 ft | 289 kts | 166° |
| 2026-05-03 20:25 | 10.21685 | -75.49812 | 4770 ft | 279 kts | 165° |
| 2026-05-03 20:25 | 10.19819 | -75.49293 | 5340 ft | 277 kts | 163° |
| 2026-05-03 20:25 | 10.17958 | -75.48749 | 5836 ft | 279 kts | 163° |
| 2026-05-03 20:26 | 10.16108 | -75.48198 | 6311 ft | 281 kts | 162° |
| 2026-05-03 20:26 | 10.14224 | -75.47631 | 6781 ft | 283 kts | 162° |
| 2026-05-03 20:26 | 10.12337 | -75.47063 | 7284 ft | 283 kts | 162° |
| 2026-05-03 20:26 | 10.10445 | -75.46493 | 7757 ft | 284 kts | 162° |
| 2026-05-03 20:27 | 10.08543 | -75.45925 | 8359 ft | 287 kts | 162° |
| 2026-05-03 20:27 | 10.06618 | -75.45354 | 9278 ft | 288 kts | 162° |
| 2026-05-03 20:27 | 10.04688 | -75.44781 | 10154 ft | 290 kts | 162° |
| 2026-05-03 20:27 | 10.02694 | -75.44189 | 10631 ft | 308 kts | 162° |
| 2026-05-03 20:28 | 10.00602 | -75.43566 | 10935 ft | 327 kts | 162° |
| 2026-05-03 20:28 | 9.98356 | -75.42897 | 11222 ft | 345 kts | 162° |
| 2026-05-03 20:28 | 9.95998 | -75.42196 | 11514 ft | 361 kts | 162° |
| 2026-05-03 20:28 | 9.93534 | -75.41463 | 11781 ft | 375 kts | 162° |
| 2026-05-03 20:29 | 9.90990 | -75.40708 | 12136 ft | 385 kts | 162° |
| 2026-05-03 20:29 | 9.88396 | -75.39939 | 12613 ft | 391 kts | 162° |
| 2026-05-03 20:29 | 9.85773 | -75.39162 | 13155 ft | 394 kts | 162° |
| 2026-05-03 20:29 | 9.83134 | -75.38379 | 13706 ft | 397 kts | 162° |
| 2026-05-03 20:30 | 9.80475 | -75.37591 | 14177 ft | 400 kts | 162° |
| 2026-05-03 20:30 | 9.77792 | -75.36794 | 14624 ft | 403 kts | 162° |
| 2026-05-03 20:30 | 9.75121 | -75.36001 | 15094 ft | 406 kts | 162° |
| 2026-05-03 20:30 | 9.72363 | -75.35182 | 15557 ft | 410 kts | 162° |
| 2026-05-03 20:31 | 9.69633 | -75.34374 | 16021 ft | 414 kts | 162° |
| 2026-05-03 20:31 | 9.66858 | -75.33551 | 16488 ft | 417 kts | 162° |
| 2026-05-03 20:31 | 9.64064 | -75.32721 | 16926 ft | 420 kts | 162° |
| 2026-05-03 20:31 | 9.61253 | -75.31886 | 17352 ft | 422 kts | 163° |
| 2026-05-03 20:32 | 9.58421 | -75.31046 | 17753 ft | 426 kts | 163° |
| 2026-05-03 20:32 | 9.55560 | -75.30199 | 18136 ft | 429 kts | 162° |
| 2026-05-03 20:32 | 9.52684 | -75.29347 | 18477 ft | 431 kts | 163° |
| 2026-05-03 20:32 | 9.49833 | -75.28501 | 18797 ft | 433 kts | 163° |
| 2026-05-03 20:33 | 9.46929 | -75.27639 | 19115 ft | 435 kts | 163° |
| 2026-05-03 20:33 | 9.44016 | -75.26776 | 19425 ft | 437 kts | 163° |
| 2026-05-03 20:33 | 9.41080 | -75.25906 | 19728 ft | 439 kts | 163° |
| 2026-05-03 20:33 | 9.38141 | -75.25036 | 20030 ft | 441 kts | 163° |
| 2026-05-03 20:34 | 9.35177 | -75.24158 | 20326 ft | 443 kts | 163° |
| 2026-05-03 20:34 | 9.32208 | -75.23279 | 20623 ft | 445 kts | 163° |
| 2026-05-03 20:34 | 9.29266 | -75.22408 | 20890 ft | 447 kts | 163° |
| 2026-05-03 20:34 | 9.26261 | -75.21519 | 21162 ft | 449 kts | 163° |
| 2026-05-03 20:35 | 9.23253 | -75.20628 | 21450 ft | 451 kts | 163° |
| 2026-05-03 20:35 | 9.20237 | -75.19736 | 21720 ft | 453 kts | 163° |
| 2026-05-03 20:35 | 9.17200 | -75.18837 | 21981 ft | 455 kts | 163° |
| 2026-05-03 20:35 | 9.14148 | -75.17934 | 22228 ft | 457 kts | 163° |
| 2026-05-03 20:36 | 9.11086 | -75.17028 | 22462 ft | 459 kts | 163° |
| 2026-05-03 20:36 | 9.08017 | -75.16121 | 22723 ft | 460 kts | 163° |
| 2026-05-03 20:36 | 9.04939 | -75.15210 | 22961 ft | 462 kts | 163° |
| 2026-05-03 20:36 | 9.01842 | -75.14295 | 23192 ft | 464 kts | 163° |
| 2026-05-03 20:37 | 8.98767 | -75.13387 | 23408 ft | 466 kts | 163° |
| 2026-05-03 20:37 | 8.95645 | -75.12464 | 23600 ft | 467 kts | 163° |
| 2026-05-03 20:37 | 8.92518 | -75.11541 | 23781 ft | 469 kts | 163° |
| 2026-05-03 20:37 | 8.89381 | -75.10614 | 23963 ft | 470 kts | 163° |
| 2026-05-03 20:38 | 8.86237 | -75.09685 | 24142 ft | 471 kts | 163° |
| 2026-05-03 20:38 | 8.83078 | -75.08752 | 24322 ft | 473 kts | 163° |
| 2026-05-03 20:38 | 8.79915 | -75.07818 | 24502 ft | 474 kts | 163° |
| 2026-05-03 20:38 | 8.76745 | -75.06882 | 24686 ft | 475 kts | 163° |
| 2026-05-03 20:39 | 8.73566 | -75.05943 | 24860 ft | 476 kts | 163° |
| 2026-05-03 20:39 | 8.70424 | -75.05016 | 25026 ft | 477 kts | 163° |
| 2026-05-03 20:39 | 8.67227 | -75.04073 | 25185 ft | 479 kts | 163° |
| 2026-05-03 20:39 | 8.64017 | -75.03126 | 25345 ft | 480 kts | 163° |
| 2026-05-03 20:40 | 8.60802 | -75.02178 | 25531 ft | 481 kts | 163° |
| 2026-05-03 20:40 | 8.57576 | -75.01227 | 25683 ft | 482 kts | 163° |
| 2026-05-03 20:40 | 8.54342 | -75.00273 | 25836 ft | 484 kts | 163° |
| 2026-05-03 20:40 | 8.51147 | -74.99331 | 25987 ft | 485 kts | 163° |
| 2026-05-03 20:41 | 8.47901 | -74.98374 | 26138 ft | 486 kts | 163° |
| 2026-05-03 20:41 | 8.44654 | -74.97418 | 26274 ft | 487 kts | 163° |
| 2026-05-03 20:41 | 8.41391 | -74.96456 | 26421 ft | 488 kts | 163° |
| 2026-05-03 20:41 | 8.38129 | -74.95495 | 26560 ft | 489 kts | 163° |
| 2026-05-03 20:42 | 8.34857 | -74.94532 | 26704 ft | 490 kts | 163° |
| 2026-05-03 20:42 | 8.31576 | -74.93566 | 26875 ft | 491 kts | 163° |
| 2026-05-03 20:42 | 8.28303 | -74.92602 | 27067 ft | 490 kts | 163° |
| 2026-05-03 20:42 | 8.25029 | -74.91638 | 27274 ft | 490 kts | 163° |
| 2026-05-03 20:43 | 8.21750 | -74.90673 | 27466 ft | 490 kts | 163° |
| 2026-05-03 20:43 | 8.18472 | -74.89709 | 27683 ft | 490 kts | 163° |
| 2026-05-03 20:43 | 8.15199 | -74.88746 | 27897 ft | 489 kts | 163° |
| 2026-05-03 20:43 | 8.11914 | -74.87780 | 28126 ft | 489 kts | 163° |
| 2026-05-03 20:44 | 8.08652 | -74.86821 | 28347 ft | 489 kts | 163° |
| 2026-05-03 20:44 | 8.05423 | -74.85871 | 28583 ft | 489 kts | 163° |
| 2026-05-03 20:44 | 8.02150 | -74.84909 | 28787 ft | 489 kts | 163° |
| 2026-05-03 20:44 | 7.98881 | -74.83947 | 29019 ft | 489 kts | 163° |
| 2026-05-03 20:45 | 7.95614 | -74.82987 | 29263 ft | 489 kts | 163° |
| 2026-05-03 20:45 | 7.92340 | -74.82025 | 29492 ft | 489 kts | 163° |
| 2026-05-03 20:45 | 7.89068 | -74.81063 | 29726 ft | 489 kts | 163° |
| 2026-05-03 20:45 | 7.85794 | -74.80102 | 29963 ft | 489 kts | 163° |
| 2026-05-03 20:46 | 7.82521 | -74.79141 | 30175 ft | 489 kts | 163° |
| 2026-05-03 20:46 | 7.79256 | -74.78181 | 30397 ft | 489 kts | 163° |
| 2026-05-03 20:46 | 7.76023 | -74.77232 | 30612 ft | 489 kts | 163° |
| 2026-05-03 20:46 | 7.72751 | -74.76272 | 30838 ft | 489 kts | 163° |
| 2026-05-03 20:47 | 7.69462 | -74.75389 | 31047 ft | 489 kts | 170° |
| 2026-05-03 20:47 | 7.66076 | -74.75162 | 31297 ft | 488 kts | 180° |
| 2026-05-03 20:47 | 7.62682 | -74.75249 | 31539 ft | 488 kts | 182° |
| 2026-05-03 20:47 | 7.59295 | -74.75392 | 31767 ft | 488 kts | 182° |
| 2026-05-03 20:48 | 7.55902 | -74.75549 | 31995 ft | 488 kts | 182° |
| 2026-05-03 20:48 | 7.52513 | -74.75709 | 32219 ft | 487 kts | 183° |
| 2026-05-03 20:48 | 7.50268 | -74.75817 | 32373 ft | 487 kts | 183° |
| 2026-05-03 20:48 | 7.46873 | -74.75980 | 32603 ft | 487 kts | 183° |
| 2026-05-03 20:49 | 7.43487 | -74.76143 | 32821 ft | 487 kts | 183° |
| 2026-05-03 20:49 | 7.36720 | -74.76470 | 32897 ft | 485 kts | 183° |
| 2026-05-03 20:50 | 7.30009 | -74.76794 | 32904 ft | 485 kts | 183° |
| 2026-05-03 20:50 | 7.23256 | -74.77120 | 32908 ft | 485 kts | 182° |
| 2026-05-03 20:51 | 7.16515 | -74.77446 | 32925 ft | 485 kts | 182° |
| 2026-05-03 20:51 | 7.09761 | -74.77772 | 32920 ft | 485 kts | 182° |
| 2026-05-03 20:52 | 7.03014 | -74.78098 | 32922 ft | 485 kts | 182° |
| 2026-05-03 20:52 | 6.96252 | -74.78424 | 32932 ft | 485 kts | 182° |
| 2026-05-03 20:53 | 6.89507 | -74.78749 | 32934 ft | 485 kts | 182° |
| 2026-05-03 20:53 | 6.82766 | -74.79074 | 32936 ft | 485 kts | 182° |
| 2026-05-03 20:54 | 6.76016 | -74.79400 | 32935 ft | 485 kts | 182° |
| 2026-05-03 20:54 | 6.65936 | -74.79886 | 32947 ft | 485 kts | 182° |
| 2026-05-03 20:55 | 6.59191 | -74.80211 | 32940 ft | 485 kts | 182° |
| 2026-05-03 20:55 | 6.52444 | -74.80535 | 32941 ft | 485 kts | 182° |
| 2026-05-03 20:56 | 6.45705 | -74.80860 | 32933 ft | 485 kts | 182° |
| 2026-05-03 20:56 | 6.39002 | -74.81182 | 32938 ft | 484 kts | 182° |
| 2026-05-03 20:57 | 6.32267 | -74.81507 | 32933 ft | 484 kts | 182° |
| 2026-05-03 20:57 | 6.25538 | -74.81830 | 32928 ft | 484 kts | 182° |
| 2026-05-03 20:58 | 6.22169 | -74.81992 | 32718 ft | 485 kts | 182° |
| 2026-05-03 20:58 | 6.18786 | -74.82154 | 32467 ft | 486 kts | 182° |
| 2026-05-03 20:58 | 6.15394 | -74.82317 | 32224 ft | 487 kts | 182° |
| 2026-05-03 20:58 | 6.12000 | -74.82481 | 31986 ft | 488 kts | 182° |
| 2026-05-03 20:59 | 6.08603 | -74.82645 | 31750 ft | 489 kts | 182° |
| 2026-05-03 20:59 | 6.05205 | -74.82808 | 31509 ft | 490 kts | 182° |
| 2026-05-03 20:59 | 6.01799 | -74.82984 | 31272 ft | 490 kts | 184° |
| 2026-05-03 20:59 | 5.98419 | -74.83509 | 31045 ft | 492 kts | 192° |
| 2026-05-03 21:00 | 5.95102 | -74.84349 | 30816 ft | 492 kts | 194° |
| 2026-05-03 21:00 | 5.92911 | -74.84942 | 30668 ft | 493 kts | 194° |
| 2026-05-03 21:00 | 5.88528 | -74.86135 | 30368 ft | 493 kts | 194° |
| 2026-05-03 21:00 | 5.85211 | -74.87035 | 30147 ft | 493 kts | 194° |
| 2026-05-03 21:01 | 5.81888 | -74.87932 | 29912 ft | 493 kts | 194° |
| 2026-05-03 21:01 | 5.78578 | -74.88825 | 29630 ft | 490 kts | 194° |
| 2026-05-03 21:01 | 5.75290 | -74.89710 | 28901 ft | 486 kts | 194° |
| 2026-05-03 21:01 | 5.72038 | -74.90585 | 28214 ft | 481 kts | 194° |
| 2026-05-03 21:02 | 5.68814 | -74.91452 | 27518 ft | 477 kts | 193° |
| 2026-05-03 21:02 | 5.65663 | -74.92299 | 26834 ft | 472 kts | 193° |
| 2026-05-03 21:02 | 5.62500 | -74.93149 | 26138 ft | 469 kts | 193° |
| 2026-05-03 21:02 | 5.59359 | -74.93994 | 25467 ft | 465 kts | 193° |
| 2026-05-03 21:03 | 5.56245 | -74.94830 | 24792 ft | 461 kts | 193° |
| 2026-05-03 21:03 | 5.53157 | -74.95659 | 24112 ft | 458 kts | 193° |
| 2026-05-03 21:03 | 5.50085 | -74.96483 | 23490 ft | 455 kts | 193° |
| 2026-05-03 21:03 | 5.47057 | -74.97295 | 23036 ft | 444 kts | 193° |
| 2026-05-03 21:04 | 5.44107 | -74.98088 | 22909 ft | 432 kts | 193° |
| 2026-05-03 21:04 | 5.41254 | -74.98845 | 22884 ft | 414 kts | 191° |
| 2026-05-03 21:04 | 5.38498 | -74.99161 | 22882 ft | 393 kts | 174° |
| 2026-05-03 21:04 | 5.35874 | -74.98622 | 22894 ft | 382 kts | 158° |
| 2026-05-03 21:05 | 5.33405 | -74.97644 | 22874 ft | 382 kts | 155° |
| 2026-05-03 21:05 | 5.30953 | -74.96592 | 22868 ft | 383 kts | 154° |
| 2026-05-03 21:05 | 5.28499 | -74.95535 | 22861 ft | 384 kts | 154° |
| 2026-05-03 21:05 | 5.26051 | -74.94487 | 22617 ft | 382 kts | 154° |
| 2026-05-03 21:06 | 5.23600 | -74.93443 | 22054 ft | 383 kts | 154° |
| 2026-05-03 21:06 | 5.21262 | -74.92174 | 21504 ft | 379 kts | 141° |
| 2026-05-03 21:06 | 5.19473 | -74.90278 | 21063 ft | 373 kts | 123° |
| 2026-05-03 21:06 | 5.18142 | -74.88098 | 20618 ft | 370 kts | 118° |
| 2026-05-03 21:07 | 5.16883 | -74.85860 | 20170 ft | 367 kts | 118° |
| 2026-05-03 21:07 | 5.15631 | -74.83636 | 19749 ft | 364 kts | 118° |
| 2026-05-03 21:07 | 5.14370 | -74.81435 | 19308 ft | 362 kts | 118° |
| 2026-05-03 21:07 | 5.13395 | -74.79127 | 18885 ft | 358 kts | 104° |
| 2026-05-03 21:08 | 5.13216 | -74.76652 | 18421 ft | 357 kts | 83° |
| 2026-05-03 21:08 | 5.13964 | -74.74291 | 17993 ft | 356 kts | 63° |
| 2026-05-03 21:08 | 5.15455 | -74.72352 | 17526 ft | 356 kts | 47° |
| 2026-05-03 21:08 | 5.17241 | -74.70635 | 17079 ft | 354 kts | 45° |
| 2026-05-03 21:09 | 5.19032 | -74.68978 | 16895 ft | 346 kts | 45° |
| 2026-05-03 21:09 | 5.20799 | -74.67335 | 16878 ft | 346 kts | 45° |
| 2026-05-03 21:09 | 5.22564 | -74.65682 | 16882 ft | 348 kts | 45° |
| 2026-05-03 21:09 | 5.24278 | -74.63964 | 16873 ft | 347 kts | 52° |
| 2026-05-03 21:10 | 5.25532 | -74.61918 | 16891 ft | 344 kts | 67° |
| 2026-05-03 21:10 | 5.26424 | -74.59700 | 16900 ft | 343 kts | 70° |
| 2026-05-03 21:10 | 5.27132 | -74.57416 | 16854 ft | 356 kts | 79° |
| 2026-05-03 21:10 | 5.27330 | -74.54887 | 16854 ft | 372 kts | 94° |
| 2026-05-03 21:11 | 5.26696 | -74.52339 | 16865 ft | 382 kts | 114° |
| 2026-05-03 21:11 | 5.25197 | -74.50156 | 16864 ft | 382 kts | 132° |
| 2026-05-03 21:11 | 5.23069 | -74.48542 | 16667 ft | 386 kts | 150° |
| 2026-05-03 21:11 | 5.20522 | -74.47671 | 16431 ft | 390 kts | 166° |
| 2026-05-03 21:12 | 5.17854 | -74.47197 | 16195 ft | 389 kts | 168° |
| 2026-05-03 21:12 | 5.15200 | -74.46722 | 15956 ft | 386 kts | 167° |
| 2026-05-03 21:12 | 5.12562 | -74.46207 | 15739 ft | 385 kts | 166° |
| 2026-05-03 21:12 | 5.09980 | -74.45670 | 15495 ft | 383 kts | 166° |
| 2026-05-03 21:13 | 5.07375 | -74.45103 | 15263 ft | 382 kts | 165° |
| 2026-05-03 21:13 | 5.04784 | -74.44527 | 15036 ft | 381 kts | 165° |
| 2026-05-03 21:13 | 5.02210 | -74.43937 | 14955 ft | 380 kts | 165° |
| 2026-05-03 21:13 | 4.99638 | -74.43337 | 14945 ft | 378 kts | 164° |
| 2026-05-03 21:14 | 4.97064 | -74.42731 | 14957 ft | 382 kts | 165° |
| 2026-05-03 21:14 | 4.94454 | -74.42180 | 14950 ft | 382 kts | 166° |
| 2026-05-03 21:14 | 4.91915 | -74.41570 | 14981 ft | 378 kts | 160° |
| 2026-05-03 21:14 | 4.89531 | -74.40471 | 14922 ft | 376 kts | 149° |
| 2026-05-03 21:15 | 4.87295 | -74.39128 | 14746 ft | 374 kts | 146° |
| 2026-05-03 21:15 | 4.85093 | -74.37748 | 14728 ft | 373 kts | 146° |
| 2026-05-03 21:15 | 4.82892 | -74.36369 | 14752 ft | 373 kts | 146° |
| 2026-05-03 21:15 | 4.80691 | -74.34994 | 14785 ft | 373 kts | 146° |
| 2026-05-03 21:16 | 4.78483 | -74.33617 | 14814 ft | 373 kts | 146° |
| 2026-05-03 21:16 | 4.76281 | -74.32246 | 14839 ft | 373 kts | 146° |
| 2026-05-03 21:16 | 4.74075 | -74.30874 | 14860 ft | 373 kts | 146° |
| 2026-05-03 21:16 | 4.71866 | -74.29500 | 14879 ft | 373 kts | 146° |
| 2026-05-03 21:17 | 4.69655 | -74.28127 | 14898 ft | 373 kts | 146° |
| 2026-05-03 21:17 | 4.68195 | -74.27219 | 14901 ft | 373 kts | 146° |
| 2026-05-03 21:17 | 4.65242 | -74.25385 | 14934 ft | 373 kts | 146° |
| 2026-05-03 21:17 | 4.63064 | -74.24033 | 14913 ft | 373 kts | 146° |
| 2026-05-03 21:18 | 4.60855 | -74.22659 | 14911 ft | 373 kts | 146° |
| 2026-05-03 21:18 | 4.58642 | -74.21285 | 14904 ft | 373 kts | 146° |
| 2026-05-03 21:18 | 4.56437 | -74.19915 | 14894 ft | 374 kts | 146° |
| 2026-05-03 21:18 | 4.54226 | -74.18543 | 14874 ft | 373 kts | 146° |
| 2026-05-03 21:19 | 4.52047 | -74.17191 | 14855 ft | 359 kts | 146° |
| 2026-05-03 21:19 | 4.49975 | -74.15907 | 14830 ft | 341 kts | 146° |
| 2026-05-03 21:19 | 4.48008 | -74.14688 | 14819 ft | 324 kts | 146° |
| 2026-05-03 21:19 | 4.46134 | -74.13524 | 14804 ft | 311 kts | 146° |
| 2026-05-03 21:20 | 4.44352 | -74.12415 | 14787 ft | 298 kts | 146° |
| 2026-05-03 21:20 | 4.42645 | -74.11356 | 14770 ft | 280 kts | 146° |
| 2026-05-03 21:20 | 4.41034 | -74.10357 | 14762 ft | 264 kts | 145° |
| 2026-05-03 21:20 | 4.39528 | -74.09424 | 14785 ft | 245 kts | 146° |
| 2026-05-03 21:21 | 4.38111 | -74.08546 | 14745 ft | 233 kts | 145° |
| 2026-05-03 21:21 | 4.36777 | -74.07717 | 14722 ft | 217 kts | 145° |
| 2026-05-03 21:21 | 4.35513 | -74.06932 | 14727 ft | 211 kts | 145° |
| 2026-05-03 21:21 | 4.34268 | -74.06158 | 14734 ft | 210 kts | 144° |
| 2026-05-03 21:22 | 4.33001 | -74.05420 | 14727 ft | 212 kts | 155° |
| 2026-05-03 21:22 | 4.31537 | -74.05332 | 14714 ft | 219 kts | 197° |
| 2026-05-03 21:22 | 4.30354 | -74.06273 | 14721 ft | 225 kts | 240° |
| 2026-05-03 21:22 | 4.30063 | -74.07785 | 14727 ft | 225 kts | 283° |
| 2026-05-03 21:23 | 4.30811 | -74.09107 | 14726 ft | 219 kts | 327° |
| 2026-05-03 21:23 | 4.32179 | -74.09593 | 14722 ft | 206 kts | 5° |
| 2026-05-03 21:23 | 4.33641 | -74.09604 | 14844 ft | 217 kts | 0° |
| 2026-05-03 21:23 | 4.35144 | -74.09977 | 14761 ft | 227 kts | 341° |
| 2026-05-03 21:24 | 4.36625 | -74.10455 | 14754 ft | 227 kts | 348° |
| 2026-05-03 21:24 | 4.38141 | -74.10896 | 14746 ft | 228 kts | 347° |
| 2026-05-03 21:24 | 4.39660 | -74.11375 | 14764 ft | 228 kts | 345° |
| 2026-05-03 21:24 | 4.41169 | -74.11883 | 14783 ft | 229 kts | 344° |
| 2026-05-03 21:25 | 4.42673 | -74.12405 | 14786 ft | 229 kts | 345° |
| 2026-05-03 21:25 | 4.44180 | -74.12937 | 14792 ft | 229 kts | 345° |
| 2026-05-03 21:25 | 4.45716 | -74.13333 | 14817 ft | 225 kts | 356° |
| 2026-05-03 21:25 | 4.47230 | -74.13305 | 14815 ft | 213 kts | 15° |
| 2026-05-03 21:26 | 4.48638 | -74.12979 | 14814 ft | 207 kts | 20° |
| 2026-05-03 21:26 | 4.50030 | -74.12559 | 14429 ft | 214 kts | 22° |
| 2026-05-03 21:26 | 4.51474 | -74.12070 | 13976 ft | 225 kts | 22° |
| 2026-05-03 21:26 | 4.52990 | -74.11578 | 13689 ft | 229 kts | 20° |
| 2026-05-03 21:27 | 4.54503 | -74.11152 | 13595 ft | 222 kts | 18° |
| 2026-05-03 21:27 | 4.55980 | -74.10795 | 13459 ft | 214 kts | 16° |
| 2026-05-03 21:27 | 4.57425 | -74.10518 | 13231 ft | 211 kts | 12° |
| 2026-05-03 21:27 | 4.58866 | -74.10194 | 12881 ft | 210 kts | 23° |
| 2026-05-03 21:28 | 4.60186 | -74.09649 | 12685 ft | 204 kts | 30° |
| 2026-05-03 21:28 | 4.61413 | -74.09008 | 12589 ft | 189 kts | 32° |
| 2026-05-03 21:28 | 4.62510 | -74.08429 | 12499 ft | 168 kts | 31° |
| 2026-05-03 21:28 | 4.63484 | -74.07925 | 12442 ft | 150 kts | 31° |
| 2026-05-03 21:29 | 4.64532 | -74.07632 | 11910 ft | 170 kts | 5° |
| 2026-05-03 21:29 | 4.65778 | -74.07852 | 11251 ft | 196 kts | 343° |
| 2026-05-03 21:29 | 4.66972 | -74.08566 | 10494 ft | 209 kts | 315° |
| 2026-05-03 21:29 | 4.67699 | -74.09845 | 9685 ft | 215 kts | 290° |
| 2026-05-03 21:30 | 4.68296 | -74.11193 | 9104 ft | 207 kts | 303° |
| 2026-05-03 21:30 | 4.69171 | -74.12299 | 8508 ft | 194 kts | 302° |
| 2026-05-03 21:30 | 4.69900 | -74.13329 | 8372 ft | 161 kts | 308° |
| 2026-05-03 21:30 | 4.70452 | -74.14038 | 8372 ft | 94 kts | 306° |
| 2026-05-03 21:31 | 4.70695 | -74.14347 | 8373 ft | 37 kts | 307° |
| 2026-05-03 21:31 | 4.70835 | -74.14535 | 8373 ft | 28 kts | 306° |
| 2026-05-03 21:31 | 4.70946 | -74.14687 | 8372 ft | 26 kts | 305° |
| 2026-05-03 21:31 | 4.71047 | -74.14821 | 8371 ft | 23 kts | 307° |
| 2026-05-03 21:32 | 4.71138 | -74.14942 | 8370 ft | 21 kts | 306° |
| 2026-05-03 21:32 | 4.71221 | -74.15055 | 8372 ft | 20 kts | 308° |
| 2026-05-03 21:32 | 4.71298 | -74.15158 | 8372 ft | 17 kts | 290° |
| 2026-05-03 21:32 | 4.71270 | -74.15248 | 8373 ft | 12 kts | 230° |
| 2026-05-03 21:33 | 4.71209 | -74.15285 | 8373 ft | 11 kts | 189° |
| 2026-05-03 21:33 | 4.71134 | -74.15256 | 8373 ft | 13 kts | 139° |
| 2026-05-03 21:33 | 4.71069 | -74.15176 | 8373 ft | 16 kts | 127° |
| 2026-05-03 21:33 | 4.70998 | -74.15083 | 8373 ft | 18 kts | 127° |
| 2026-05-03 21:34 | 4.70920 | -74.14980 | 8372 ft | 19 kts | 128° |
| 2026-05-03 21:34 | 4.70835 | -74.14872 | 8373 ft | 20 kts | 128° |
| 2026-05-03 21:34 | 4.70750 | -74.14757 | 8373 ft | 21 kts | 127° |
| 2026-05-03 21:34 | 4.70660 | -74.14637 | 8373 ft | 22 kts | 127° |
| 2026-05-03 21:35 | 4.70563 | -74.14512 | 8373 ft | 20 kts | 128° |
| 2026-05-03 21:35 | 4.70464 | -74.14482 | 8373 ft | 16 kts | 209° |
| 2026-05-03 21:35 | 4.70368 | -74.14548 | 8372 ft | 16 kts | 214° |
| 2026-05-03 21:35 | 4.70285 | -74.14514 | 8372 ft | 14 kts | 132° |
| 2026-05-03 21:36 | 4.70205 | -74.14482 | 8372 ft | 14 kts | 195° |
| 2026-05-03 21:36 | 4.70121 | -74.14532 | 8372 ft | 14 kts | 217° |
| 2026-05-03 21:36 | 4.70041 | -74.14545 | 8372 ft | 12 kts | 153° |
| 2026-05-03 21:36 | 4.69980 | -74.14490 | 8372 ft | 12 kts | 128° |
| 2026-05-03 21:37 | 4.69947 | -74.14443 | 8372 ft | 13 kts | 123° |
| 2026-05-03 21:37 | 4.69893 | -74.14412 | 8372 ft | 6 kts | 171° |
| 2026-05-03 21:37 | 4.69865 | -74.14420 | 8372 ft | 1 kts | 207° |
| 2026-05-03 21:37 | 4.69858 | -74.14425 | 8372 ft | 2 kts | 215° |
| 2026-05-03 21:38 | 4.69856 | -74.14426 | 8372 ft | 0 kts | 218° |